createdAt,value
2022-12-25T00:01:03.134Z,7.9
2022-12-25T00:01:18.535Z,7.9
2022-12-25T00:03:24.379Z,7.9
2022-12-25T00:03:42.751Z,7.9
2022-12-25T00:04:18.799Z,7.9
2022-12-25T00:05:18.787Z,7.9
2022-12-25T00:06:19.364Z,7.9
2022-12-25T00:07:18.959Z,7.9
2022-12-25T00:08:19.031Z,7.9
2022-12-25T00:09:32.047Z,7.9
2022-12-25T00:10:47.001Z,7.9
2022-12-25T00:12:02.044Z,7.9
2022-12-25T00:13:18.619Z,7.9
2022-12-25T00:14:32.031Z,7.9
2022-12-25T00:15:35.682Z,7.9
2022-12-25T00:16:35.833Z,7.9
2022-12-25T00:17:35.883Z,7.9
2022-12-25T00:18:35.956Z,7.9
2022-12-25T00:19:36.069Z,7.9
2022-12-25T00:20:36.248Z,7.9
2022-12-25T00:21:36.204Z,7.9
2022-12-25T00:22:36.272Z,8
2022-12-25T00:23:36.357Z,7.9
2022-12-25T00:24:36.443Z,8
2022-12-25T00:25:36.512Z,8
2022-12-25T00:26:36.598Z,7.9
2022-12-25T00:27:36.687Z,7.9
2022-12-25T00:28:36.795Z,7.9
2022-12-25T00:29:36.866Z,7.9
2022-12-25T00:30:36.951Z,7.9
2022-12-25T00:31:37.035Z,7.9
2022-12-25T00:32:37.100Z,8
2022-12-25T00:33:37.236Z,8
2022-12-25T00:34:37.276Z,8
2022-12-25T00:35:37.341Z,8
2022-12-25T00:36:41.578Z,8
2022-12-25T00:37:37.506Z,8
2022-12-25T00:38:37.841Z,8.1
2022-12-25T00:39:37.687Z,8.1
2022-12-25T00:40:42.817Z,8
2022-12-25T00:41:37.850Z,8
2022-12-25T00:42:37.903Z,8
2022-12-25T00:43:38.018Z,8
2022-12-25T00:44:38.146Z,8
2022-12-25T00:45:38.456Z,8
2022-12-25T00:46:38.293Z,7.9
2022-12-25T00:47:38.329Z,7.9
2022-12-25T00:48:38.383Z,7.9
2022-12-25T00:49:38.451Z,7.9
2022-12-25T00:50:38.575Z,7.9
2022-12-25T00:51:38.812Z,7.9
2022-12-25T00:52:38.747Z,7.9
2022-12-25T00:53:39.816Z,7.9
2022-12-25T00:54:38.764Z,7.9
2022-12-25T00:55:38.844Z,7.9
2022-12-25T00:56:38.871Z,7.9
2022-12-25T00:57:39.476Z,7.9
2022-12-25T00:58:39.225Z,7.9
2022-12-25T00:59:39.586Z,7.8
2022-12-25T01:00:39.208Z,7.8
2022-12-25T01:01:39.475Z,7.8
2022-12-25T01:02:39.430Z,7.8
2022-12-25T01:03:40.308Z,7.9
2022-12-25T01:04:39.528Z,7.8
2022-12-25T01:05:39.528Z,7.8
2022-12-25T01:06:39.651Z,7.9
2022-12-25T01:07:39.649Z,7.9
2022-12-25T01:08:39.910Z,7.9
2022-12-25T01:09:39.901Z,7.9
2022-12-25T01:10:40.219Z,7.9
2022-12-25T01:11:46.618Z,7.9
2022-12-25T01:12:40.089Z,8
2022-12-25T01:13:40.200Z,8
2022-12-25T01:14:40.245Z,8
2022-12-25T01:15:40.340Z,7.9
2022-12-25T01:16:40.428Z,8
2022-12-25T01:17:40.440Z,8
2022-12-25T01:18:40.551Z,8
2022-12-25T01:19:40.679Z,8
2022-12-25T01:20:40.721Z,8
2022-12-25T01:21:40.767Z,8
2022-12-25T01:22:40.792Z,8
2022-12-25T01:23:40.905Z,7.9
2022-12-25T01:24:41.001Z,7.9
2022-12-25T01:25:41.047Z,7.9
2022-12-25T01:26:41.117Z,7.9
2022-12-25T01:27:41.194Z,7.9
2022-12-25T01:28:41.267Z,7.9
2022-12-25T01:29:41.381Z,7.9
2022-12-25T01:30:41.420Z,7.9
2022-12-25T01:31:41.628Z,7.9
2022-12-25T01:32:41.808Z,8
2022-12-25T01:33:41.841Z,8
2022-12-25T01:34:41.732Z,7.9
2022-12-25T01:35:41.824Z,8
2022-12-25T01:36:41.879Z,8
2022-12-25T01:37:42.439Z,8
2022-12-25T01:38:42.019Z,8
2022-12-25T01:39:42.902Z,8.1
2022-12-25T01:40:42.637Z,8.1
2022-12-25T01:41:42.590Z,8
2022-12-25T01:42:42.349Z,8.1
2022-12-25T01:43:42.474Z,8.1
2022-12-25T01:44:42.497Z,8.1
2022-12-25T01:45:42.477Z,8.1
2022-12-25T01:46:42.533Z,8.1
2022-12-25T01:47:42.515Z,8.1
2022-12-25T01:48:42.532Z,8.2
2022-12-25T01:49:46.392Z,8.2
2022-12-25T01:50:42.671Z,8.3
2022-12-25T01:51:42.770Z,8.2
2022-12-25T01:52:42.831Z,8.2
2022-12-25T01:53:42.879Z,8.2
2022-12-25T01:54:42.972Z,8.2
2022-12-25T01:55:43.076Z,8.2
2022-12-25T01:56:43.108Z,8.2
2022-12-25T01:57:43.216Z,8.2
2022-12-25T01:58:43.289Z,8.1
2022-12-25T01:59:43.320Z,8.2
2022-12-25T02:00:43.421Z,8.2
2022-12-25T02:01:43.507Z,8.1
2022-12-25T02:02:44.737Z,8.2
2022-12-25T02:03:43.554Z,8.2
2022-12-25T02:04:43.598Z,8.2
2022-12-25T02:05:43.684Z,8.2
2022-12-25T02:06:43.708Z,8.2
2022-12-25T02:07:43.746Z,8.2
2022-12-25T02:08:43.819Z,8.3
2022-12-25T02:09:43.875Z,8.2
2022-12-25T02:10:43.990Z,8.2
2022-12-25T02:11:44.063Z,8.3
2022-12-25T02:12:44.101Z,8.3
2022-12-25T02:13:44.169Z,8.3
2022-12-25T02:14:44.248Z,8.3
2022-12-25T02:15:44.315Z,8.3
2022-12-25T02:16:57.059Z,8.3
2022-12-25T02:17:44.476Z,8.3
2022-12-25T02:18:44.649Z,8.4
2022-12-25T02:19:44.631Z,8.4
2022-12-25T02:20:44.724Z,8.4
2022-12-25T02:21:44.801Z,8.4
2022-12-25T02:22:44.861Z,8.4
2022-12-25T02:23:44.941Z,8.4
2022-12-25T02:24:45.017Z,8.4
2022-12-25T02:25:45.117Z,8.4
2022-12-25T02:26:45.225Z,8.4
2022-12-25T02:27:45.242Z,8.4
2022-12-25T02:28:46.029Z,8.4
2022-12-25T02:29:45.432Z,8.5
2022-12-25T02:30:45.524Z,8.5
2022-12-25T02:31:45.647Z,8.4
2022-12-25T02:32:45.654Z,8.4
2022-12-25T02:33:45.769Z,8.5
2022-12-25T02:34:45.821Z,8.5
2022-12-25T02:35:45.941Z,8.4
2022-12-25T02:36:45.985Z,8.5
2022-12-25T02:37:46.045Z,8.5
2022-12-25T02:38:46.133Z,8.6
2022-12-25T02:39:46.244Z,8.5
2022-12-25T02:40:46.334Z,8.5
2022-12-25T02:41:46.408Z,8.5
2022-12-25T02:42:46.492Z,8.6
2022-12-25T02:43:46.570Z,8.6
2022-12-25T02:44:46.649Z,8.5
2022-12-25T02:45:46.859Z,8.5
2022-12-25T02:46:46.839Z,8.5
2022-12-25T02:47:46.916Z,8.5
2022-12-25T02:48:46.951Z,8.5
2022-12-25T02:49:47.030Z,8.5
2022-12-25T02:50:47.167Z,8.5
2022-12-25T02:52:21.834Z,8.5
2022-12-25T02:52:47.285Z,8.5
2022-12-25T02:53:47.376Z,8.4
2022-12-25T02:54:47.456Z,8.4
2022-12-25T02:55:47.553Z,8.5
2022-12-25T02:56:47.618Z,8.5
2022-12-25T02:57:47.710Z,8.5
2022-12-25T02:58:57.130Z,8.5
2022-12-25T02:59:47.982Z,8.4
2022-12-25T03:00:48.261Z,8.4
2022-12-25T03:01:48.342Z,8.5
2022-12-25T03:02:48.383Z,8.4
2022-12-25T03:03:48.329Z,8.5
2022-12-25T03:04:48.785Z,8.4
2022-12-25T03:05:49.736Z,8.4
2022-12-25T03:06:48.673Z,8.4
2022-12-25T03:07:48.665Z,8.4
2022-12-25T03:08:53.578Z,8.4
2022-12-25T03:09:48.790Z,8.5
2022-12-25T03:10:48.804Z,8.5
2022-12-25T03:11:48.810Z,8.4
2022-12-25T03:12:48.848Z,8.4
2022-12-25T03:13:48.929Z,8.4
2022-12-25T03:14:48.965Z,8.4
2022-12-25T03:15:54.056Z,8.4
2022-12-25T03:16:49.156Z,8.4
2022-12-25T03:17:49.148Z,8.4
2022-12-25T03:18:49.231Z,8.4
2022-12-25T03:19:49.315Z,8.4
2022-12-25T03:20:49.373Z,8.3
2022-12-25T03:21:49.485Z,8.4
2022-12-25T03:22:49.552Z,8.4
2022-12-25T03:23:49.587Z,8.4
2022-12-25T03:24:49.900Z,8.4
2022-12-25T03:25:54.746Z,8.4
2022-12-25T03:26:49.797Z,8.4
2022-12-25T03:27:49.880Z,8.4
2022-12-25T03:28:54.991Z,8.4
2022-12-25T03:30:00.061Z,8.4
2022-12-25T03:30:50.191Z,8.4
2022-12-25T03:31:50.443Z,8.4
2022-12-25T03:32:50.295Z,8.4
2022-12-25T03:33:50.379Z,8.4
2022-12-25T03:34:52.586Z,8.4
2022-12-25T03:35:50.580Z,8.4
2022-12-25T03:36:50.626Z,8.5
2022-12-25T03:37:50.785Z,8.4
2022-12-25T03:38:50.768Z,8.4
2022-12-25T03:39:50.863Z,8.5
2022-12-25T03:40:50.931Z,8.5
2022-12-25T03:41:51.280Z,8.5
2022-12-25T03:42:51.067Z,8.5
2022-12-25T03:43:51.387Z,8.5
2022-12-25T03:44:51.223Z,8.5
2022-12-25T03:45:51.658Z,8.4
2022-12-25T03:46:51.415Z,8.5
2022-12-25T03:47:51.469Z,8.4
2022-12-25T03:48:51.561Z,8.4
2022-12-25T03:49:51.653Z,8.4
2022-12-25T03:50:51.710Z,8.5
2022-12-25T03:51:51.816Z,8.5
2022-12-25T03:52:51.905Z,8.5
2022-12-25T03:53:51.984Z,8.5
2022-12-25T03:54:52.035Z,8.5
2022-12-25T03:55:52.108Z,8.5
2022-12-25T03:56:52.180Z,8.5
2022-12-25T03:57:52.266Z,8.6
2022-12-25T03:58:52.320Z,8.5
2022-12-25T03:59:52.394Z,8.5
2022-12-25T04:00:52.491Z,8.5
2022-12-25T04:01:52.659Z,8.5
2022-12-25T04:02:52.687Z,8.5
2022-12-25T04:03:52.711Z,8.5
2022-12-25T04:04:52.771Z,8.5
2022-12-25T04:05:52.896Z,8.5
2022-12-25T04:06:52.942Z,8.5
2022-12-25T04:08:53.092Z,8.5
2022-12-25T04:09:53.283Z,8.4
2022-12-25T04:10:53.229Z,8.4
2022-12-25T04:11:58.864Z,8.4
2022-12-25T04:13:18.781Z,8.4
2022-12-25T04:14:14.168Z,8.5
2022-12-25T04:14:53.521Z,8.5
2022-12-25T04:16:28.463Z,8.5
2022-12-25T04:17:03.876Z,8.5
2022-12-25T04:18:23.050Z,8.5
2022-12-25T04:19:10.410Z,8.5
2022-12-25T04:20:16.719Z,8.5
2022-12-25T04:20:53.970Z,8.5
2022-12-25T04:22:36.191Z,8.5
2022-12-25T04:23:16.941Z,8.5
2022-12-25T04:23:54.153Z,8.5
2022-12-25T04:25:50.324Z,8.5
2022-12-25T04:27:02.985Z,8.5
2022-12-25T04:27:05.055Z,8.5
2022-12-25T04:27:54.422Z,8.5
2022-12-25T04:28:54.467Z,8.5
2022-12-25T04:29:54.550Z,8.4
2022-12-25T04:31:38.210Z,8.5
2022-12-25T04:31:54.674Z,8.5
2022-12-25T04:32:54.787Z,8.5
2022-12-25T04:33:54.799Z,8.5
2022-12-25T04:34:54.884Z,8.5
2022-12-25T04:35:54.932Z,8.5
2022-12-25T04:36:55.029Z,8.5
2022-12-25T04:37:55.092Z,8.6
2022-12-25T04:38:55.142Z,8.6
2022-12-25T04:39:55.198Z,8.6
2022-12-25T04:40:55.298Z,8.6
2022-12-25T04:41:55.337Z,8.6
2022-12-25T04:42:55.420Z,8.6
2022-12-25T04:43:55.490Z,8.6
2022-12-25T04:44:55.611Z,8.6
2022-12-25T04:45:55.757Z,8.6
2022-12-25T04:46:55.746Z,8.6
2022-12-25T04:47:55.953Z,8.6
2022-12-25T04:48:55.885Z,8.6
2022-12-25T04:49:55.943Z,8.6
2022-12-25T04:50:56.002Z,8.6
2022-12-25T04:51:56.069Z,8.6
2022-12-25T04:52:56.135Z,8.6
2022-12-25T04:53:56.194Z,8.6
2022-12-25T04:54:56.290Z,8.6
2022-12-25T04:55:56.341Z,8.6
2022-12-25T04:56:56.440Z,8.6
2022-12-25T04:57:56.506Z,8.6
2022-12-25T04:58:56.607Z,8.6
2022-12-25T04:59:56.649Z,8.6
2022-12-25T05:00:56.717Z,8.6
2022-12-25T05:01:57.647Z,8.6
2022-12-25T05:02:56.989Z,8.5
2022-12-25T05:03:57.001Z,8.5
2022-12-25T05:04:58.162Z,8.6
2022-12-25T05:05:58.138Z,8.6
2022-12-25T05:06:57.151Z,8.6
2022-12-25T05:07:57.280Z,8.6
2022-12-25T05:08:57.305Z,8.6
2022-12-25T05:09:57.395Z,8.6
2022-12-25T05:10:57.421Z,8.6
2022-12-25T05:11:57.472Z,8.6
2022-12-25T05:12:57.590Z,8.6
2022-12-25T05:13:57.630Z,8.6
2022-12-25T05:15:02.231Z,8.6
2022-12-25T05:16:17.288Z,8.6
2022-12-25T05:17:32.309Z,8.6
2022-12-25T05:18:52.313Z,8.6
2022-12-25T05:20:02.260Z,8.6
2022-12-25T05:21:17.308Z,8.6
2022-12-25T05:22:32.331Z,8.5
2022-12-25T05:23:38.330Z,8.5
2022-12-25T05:24:38.454Z,8.6
2022-12-25T05:25:38.510Z,8.5
2022-12-25T05:26:38.805Z,8.5
2022-12-25T05:27:38.646Z,8.5
2022-12-25T05:28:38.731Z,8.5
2022-12-25T05:29:39.827Z,8.5
2022-12-25T05:30:38.896Z,8.5
2022-12-25T05:31:39.373Z,8.5
2022-12-25T05:32:39.015Z,8.5
2022-12-25T05:33:39.142Z,8.5
2022-12-25T05:34:45.182Z,8.5
2022-12-25T05:35:39.468Z,8.5
2022-12-25T05:36:39.206Z,8.5
2022-12-25T05:37:39.309Z,8.5
2022-12-25T05:38:39.810Z,8.5
2022-12-25T05:39:44.448Z,8.5
2022-12-25T05:40:39.468Z,8.5
2022-12-25T05:41:39.501Z,8.6
2022-12-25T05:42:39.608Z,8.6
2022-12-25T05:43:39.640Z,8.6
2022-12-25T05:44:39.680Z,8.6
2022-12-25T05:45:39.693Z,8.6
2022-12-25T05:46:39.879Z,8.6
2022-12-25T05:47:46.837Z,8.6
2022-12-25T05:48:39.820Z,8.6
2022-12-25T05:49:39.876Z,8.6
2022-12-25T05:50:39.893Z,8.6
2022-12-25T05:51:39.924Z,8.6
2022-12-25T05:52:39.995Z,8.6
2022-12-25T05:53:40.100Z,8.6
2022-12-25T05:54:41.242Z,8.6
2022-12-25T05:55:40.274Z,8.6
2022-12-25T05:56:40.317Z,8.6
2022-12-25T05:57:40.408Z,8.6
2022-12-25T05:58:40.481Z,8.6
2022-12-25T05:59:40.554Z,8.6
2022-12-25T06:00:40.698Z,8.6
2022-12-25T06:01:40.787Z,8.6
2022-12-25T06:02:40.915Z,8.6
2022-12-25T06:03:40.851Z,8.6
2022-12-25T06:04:41.720Z,8.6
2022-12-25T06:05:41.866Z,8.6
2022-12-25T06:06:41.023Z,8.6
2022-12-25T06:07:41.172Z,8.5
2022-12-25T06:08:41.842Z,8.5
2022-12-25T06:09:41.258Z,8.5
2022-12-25T06:10:41.636Z,8.5
2022-12-25T06:11:41.674Z,8.5
2022-12-25T06:12:41.729Z,8.5
2022-12-25T06:13:42.655Z,8.5
2022-12-25T06:14:41.634Z,8.6
2022-12-25T06:15:41.687Z,8.6
2022-12-25T06:16:42.421Z,8.6
2022-12-25T06:17:42.886Z,8.6
2022-12-25T06:18:42.177Z,8.6
2022-12-25T06:19:42.018Z,8.6
2022-12-25T06:20:42.117Z,8.6
2022-12-25T06:21:42.206Z,8.6
2022-12-25T06:22:42.208Z,8.6
2022-12-25T06:23:42.518Z,8.6
2022-12-25T06:24:42.389Z,8.6
2022-12-25T06:25:42.455Z,8.6
2022-12-25T06:26:42.494Z,8.6
2022-12-25T06:27:42.572Z,8.6
2022-12-25T06:28:42.663Z,8.6
2022-12-25T06:29:42.708Z,8.6
2022-12-25T06:30:42.809Z,8.6
2022-12-25T06:31:43.082Z,8.6
2022-12-25T06:32:43.051Z,8.6
2022-12-25T06:33:43.045Z,8.5
2022-12-25T06:34:43.216Z,8.5
2022-12-25T06:35:43.202Z,8.5
2022-12-25T06:36:43.272Z,8.5
2022-12-25T06:37:43.324Z,8.4
2022-12-25T06:38:43.385Z,8.4
2022-12-25T06:39:43.474Z,8.4
2022-12-25T06:40:43.581Z,8.5
2022-12-25T06:41:43.632Z,8.5
2022-12-25T06:42:43.692Z,8.5
2022-12-25T06:43:43.793Z,8.5
2022-12-25T06:44:43.872Z,8.4
2022-12-25T06:45:43.986Z,8.4
2022-12-25T06:46:44.035Z,8.4
2022-12-25T06:47:44.093Z,8.4
2022-12-25T06:48:44.146Z,8.4
2022-12-25T06:49:44.157Z,8.4
2022-12-25T06:50:44.250Z,8.4
2022-12-25T06:51:44.300Z,8.4
2022-12-25T06:52:44.334Z,8.3
2022-12-25T06:53:44.400Z,8.3
2022-12-25T06:54:44.456Z,8.3
2022-12-25T06:55:44.561Z,8.4
2022-12-25T06:56:44.594Z,8.3
2022-12-25T06:57:44.679Z,8.3
2022-12-25T06:58:44.724Z,8.4
2022-12-25T06:59:47.410Z,8.4
2022-12-25T07:00:44.887Z,8.4
2022-12-25T07:01:45.073Z,8.4
2022-12-25T07:02:45.129Z,8.4
2022-12-25T07:03:45.073Z,8.4
2022-12-25T07:04:45.237Z,8.4
2022-12-25T07:05:45.230Z,8.4
2022-12-25T07:06:45.291Z,8.4
2022-12-25T07:07:45.345Z,8.4
2022-12-25T07:08:45.427Z,8.4
2022-12-25T07:09:45.512Z,8.4
2022-12-25T07:10:45.611Z,8.5
2022-12-25T07:11:45.636Z,8.4
2022-12-25T07:12:45.725Z,8.4
2022-12-25T07:13:45.774Z,8.4
2022-12-25T07:14:50.886Z,8.4
2022-12-25T07:15:50.929Z,8.4
2022-12-25T07:16:46.066Z,8.4
2022-12-25T07:17:46.149Z,8.4
2022-12-25T07:18:46.186Z,8.4
2022-12-25T07:19:46.259Z,8.4
2022-12-25T07:20:46.376Z,8.4
2022-12-25T07:21:46.491Z,8.4
2022-12-25T07:22:46.614Z,8.4
2022-12-25T07:24:02.355Z,8.4
2022-12-25T07:25:14.388Z,8.4
2022-12-25T07:26:14.506Z,8.4
2022-12-25T07:27:14.575Z,8.4
2022-12-25T07:28:14.631Z,8.4
2022-12-25T07:29:14.702Z,8.4
2022-12-25T07:30:14.772Z,8.4
2022-12-25T07:31:15.027Z,8.4
2022-12-25T07:32:15.029Z,8.4
2022-12-25T07:33:15.000Z,8.4
2022-12-25T07:34:15.093Z,8.5
2022-12-25T07:35:15.161Z,8.4
2022-12-25T07:36:15.298Z,8.4
2022-12-25T07:37:15.305Z,8.5
2022-12-25T07:38:15.392Z,8.4
2022-12-25T07:39:15.473Z,8.4
2022-12-25T07:40:15.520Z,8.4
2022-12-25T07:41:15.631Z,8.4
2022-12-25T07:42:18.095Z,8.4
2022-12-25T07:43:15.731Z,8.5
2022-12-25T07:44:15.843Z,8.4
2022-12-25T07:45:15.875Z,8.4
2022-12-25T07:46:16.071Z,8.4
2022-12-25T07:47:16.097Z,8.4
2022-12-25T07:48:16.966Z,8.5
2022-12-25T07:49:18.871Z,8.5
2022-12-25T07:50:16.222Z,8.5
2022-12-25T07:51:16.347Z,8.5
2022-12-25T07:52:16.436Z,8.5
2022-12-25T07:53:16.487Z,8.5
2022-12-25T07:54:16.530Z,8.5
2022-12-25T07:55:16.599Z,8.5
2022-12-25T07:56:17.200Z,8.5
2022-12-25T07:57:16.789Z,8.5
2022-12-25T07:58:21.400Z,8.5
2022-12-25T07:59:16.854Z,8.5
2022-12-25T08:00:16.974Z,8.5
2022-12-25T08:01:17.132Z,8.5
2022-12-25T08:02:22.162Z,8.5
2022-12-25T08:03:17.410Z,8.5
2022-12-25T08:04:17.179Z,8.6
2022-12-25T08:05:17.221Z,8.5
2022-12-25T08:06:17.283Z,8.5
2022-12-25T08:07:17.334Z,8.5
2022-12-25T08:08:17.399Z,8.6
2022-12-25T08:09:17.454Z,8.6
2022-12-25T08:10:17.503Z,8.6
2022-12-25T08:11:17.774Z,8.6
2022-12-25T08:12:17.697Z,8.6
2022-12-25T08:13:17.769Z,8.6
2022-12-25T08:14:17.806Z,8.6
2022-12-25T08:15:17.842Z,8.6
2022-12-25T08:16:18.021Z,8.6
2022-12-25T08:17:18.004Z,8.6
2022-12-25T08:18:18.034Z,8.6
2022-12-25T08:19:18.132Z,8.6
2022-12-25T08:20:18.171Z,8.6
2022-12-25T08:21:18.273Z,8.6
2022-12-25T08:22:18.346Z,8.6
2022-12-25T08:23:18.438Z,8.6
2022-12-25T08:24:18.790Z,8.6
2022-12-25T08:25:18.628Z,8.6
2022-12-25T08:26:18.668Z,8.6
2022-12-25T08:27:18.703Z,8.6
2022-12-25T08:28:18.817Z,8.5
2022-12-25T08:29:18.881Z,8.5
2022-12-25T08:30:18.961Z,8.5
2022-12-25T08:31:19.323Z,8.5
2022-12-25T08:32:21.701Z,8.6
2022-12-25T08:33:21.499Z,8.6
2022-12-25T08:34:33.963Z,8.6
2022-12-25T08:35:19.375Z,8.6
2022-12-25T08:36:19.445Z,8.6
2022-12-25T08:37:19.585Z,8.6
2022-12-25T08:38:19.609Z,8.5
2022-12-25T08:39:19.699Z,8.5
2022-12-25T08:40:19.811Z,8.5
2022-12-25T08:41:22.761Z,8.5
2022-12-25T08:42:19.944Z,8.5
2022-12-25T08:43:20.091Z,8.5
2022-12-25T08:45:45.131Z,8.5
2022-12-25T08:46:20.360Z,8.5
2022-12-25T08:47:25.402Z,8.5
2022-12-25T08:48:28.405Z,8.6
2022-12-25T08:49:26.544Z,8.5
2022-12-25T08:50:21.757Z,8.5
2022-12-25T08:51:20.672Z,8.6
2022-12-25T08:52:20.758Z,8.6
2022-12-25T08:53:20.852Z,8.6
2022-12-25T08:54:20.941Z,8.6
2022-12-25T08:55:20.983Z,8.6
2022-12-25T08:56:21.103Z,8.6
2022-12-25T08:57:21.122Z,8.6
2022-12-25T08:58:21.211Z,8.6
2022-12-25T08:59:21.270Z,8.6
2022-12-25T09:00:21.422Z,8.6
2022-12-25T09:01:21.569Z,8.6
2022-12-25T09:02:21.761Z,8.6
2022-12-25T09:13:23.363Z,8.6
2022-12-25T09:14:23.209Z,8.6
2022-12-25T09:15:23.238Z,8.6
2022-12-25T09:16:23.420Z,8.6
2022-12-25T09:17:23.344Z,8.6
2022-12-25T09:18:23.377Z,8.6
2022-12-25T09:19:23.431Z,8.6
2022-12-25T09:20:23.484Z,8.6
2022-12-25T09:21:23.592Z,8.6
2022-12-25T09:22:24.673Z,8.6
2022-12-25T09:23:23.632Z,8.6
2022-12-25T09:24:28.183Z,8.6
2022-12-25T09:25:23.736Z,8.6
2022-12-25T09:26:28.083Z,8.6
2022-12-25T09:34:25.090Z,8.6
2022-12-25T09:35:24.297Z,8.6
2022-12-25T09:36:28.074Z,8.6
2022-12-25T09:37:28.064Z,8.6
2022-12-25T09:38:25.132Z,8.6
2022-12-25T09:39:33.306Z,8.6
2022-12-25T09:40:24.538Z,8.6
2022-12-25T09:41:24.664Z,8.6
2022-12-25T09:42:33.158Z,8.6
2022-12-25T09:43:36.771Z,8.6
2022-12-25T09:44:37.757Z,8.6
2022-12-25T09:45:52.981Z,8.6
2022-12-25T09:46:40.172Z,8.6
2022-12-25T09:47:36.831Z,8.6
2022-12-25T09:48:37.484Z,8.6
2022-12-25T09:49:43.104Z,8.6
2022-12-25T09:51:47.648Z,8.6
2022-12-25T09:52:46.481Z,8.6
2022-12-25T09:53:37.630Z,8.6
2022-12-25T09:54:39.275Z,8.6
2022-12-25T09:55:38.987Z,8.6
2022-12-25T09:56:43.043Z,8.6
2022-12-25T09:57:46.283Z,8.6
2022-12-25T09:58:43.077Z,8.6
2022-12-25T09:59:44.665Z,8.6
2022-12-25T10:00:37.456Z,8.6
2022-12-25T10:01:37.633Z,8.6
2022-12-25T10:02:40.185Z,8.6
2022-12-25T10:03:37.780Z,8.6
2022-12-25T10:05:39.222Z,8.6
2022-12-25T10:06:49.084Z,8.6
2022-12-25T10:07:38.875Z,8.6
2022-12-25T10:08:42.017Z,8.6
2022-12-25T10:09:46.915Z,8.6
2022-12-25T10:10:38.950Z,8.6
2022-12-25T10:11:55.147Z,8.6
2022-12-25T10:12:42.359Z,8.6
2022-12-25T10:13:38.272Z,8.6
2022-12-25T10:14:46.217Z,8.6
2022-12-25T10:15:43.446Z,8.6
2022-12-25T10:16:38.411Z,8.6
2022-12-25T10:17:40.117Z,8.7
2022-12-25T10:18:44.197Z,8.7
2022-12-25T10:19:41.060Z,8.7
2022-12-25T10:20:43.126Z,8.6
2022-12-25T10:21:38.563Z,8.6
2022-12-25T10:22:38.679Z,8.6
2022-12-25T10:23:38.725Z,8.6
2022-12-25T10:24:38.763Z,8.7
2022-12-25T10:25:39.052Z,8.7
2022-12-25T10:26:40.395Z,8.6
2022-12-25T10:27:58.110Z,8.6
2022-12-25T10:28:46.184Z,8.6
2022-12-25T10:29:43.281Z,8.6
2022-12-25T10:30:43.282Z,8.6
2022-12-25T10:31:45.271Z,8.6
2022-12-25T10:32:55.139Z,8.6
2022-12-25T10:33:39.447Z,8.6
2022-12-25T10:34:39.474Z,8.6
2022-12-25T10:35:39.545Z,8.6
2022-12-25T10:36:39.701Z,8.6
2022-12-25T10:37:39.699Z,8.6
2022-12-25T10:38:39.768Z,8.6
2022-12-25T10:39:45.964Z,8.6
2022-12-25T10:40:39.966Z,8.6
2022-12-25T10:41:40.058Z,8.6
2022-12-25T10:42:40.197Z,8.6
2022-12-25T10:43:40.242Z,8.6
2022-12-25T10:44:40.283Z,8.6
2022-12-25T10:45:43.729Z,8.6
2022-12-25T10:46:41.048Z,8.6
2022-12-25T10:47:42.098Z,8.6
2022-12-25T10:48:40.995Z,8.6
2022-12-25T10:49:42.343Z,8.6
2022-12-25T10:50:41.147Z,8.6
2022-12-25T10:51:41.174Z,8.6
2022-12-25T10:52:41.247Z,8.6
2022-12-25T10:53:54.092Z,8.6
2022-12-25T10:54:41.301Z,8.6
2022-12-25T10:55:41.349Z,8.6
2022-12-25T10:56:46.406Z,8.6
2022-12-25T10:57:41.425Z,8.6
2022-12-25T10:58:47.718Z,8.6
2022-12-25T10:59:41.538Z,8.6
2022-12-25T11:00:41.562Z,8.6
2022-12-25T11:01:49.950Z,8.6
2022-12-25T11:02:41.879Z,8.6
2022-12-25T11:03:42.018Z,8.6
2022-12-25T11:04:42.812Z,8.6
2022-12-25T11:05:46.822Z,8.6
2022-12-25T11:06:41.822Z,8.6
2022-12-25T11:07:49.076Z,8.6
2022-12-25T11:10:25.943Z,8.7
2022-12-25T11:10:54.561Z,8.7
2022-12-25T11:12:04.609Z,8.7
2022-12-25T11:12:48.297Z,8.6
2022-12-25T11:14:06.648Z,8.7
2022-12-25T11:14:42.013Z,8.7
2022-12-25T11:15:50.815Z,8.7
2022-12-25T11:16:52.135Z,8.8
2022-12-25T11:17:47.270Z,8.8
2022-12-25T11:19:02.080Z,8.8
2022-12-25T11:19:54.880Z,8.8
2022-12-25T11:20:47.007Z,8.8
2022-12-25T11:21:51.845Z,8.8
2022-12-25T11:22:42.388Z,8.8
2022-12-25T11:26:14.746Z,8.8
2022-12-25T11:26:43.056Z,8.8
2022-12-25T11:26:43.061Z,8.8
2022-12-25T11:27:53.531Z,8.8
2022-12-25T11:28:42.663Z,8.8
2022-12-25T11:29:50.850Z,8.8
2022-12-25T11:31:05.864Z,8.8
2022-12-25T11:31:55.129Z,8.9
2022-12-25T11:32:43.943Z,8.9
2022-12-25T11:33:59.917Z,8.9
2022-12-25T11:35:50.973Z,8.9
2022-12-25T11:35:56.414Z,8.9
2022-12-25T11:36:43.267Z,8.9
2022-12-25T11:38:09.440Z,9
2022-12-25T11:39:07.980Z,9
2022-12-25T11:40:03.713Z,9
2022-12-25T11:42:45.109Z,9
2022-12-25T11:42:49.217Z,9
2022-12-25T11:44:05.146Z,9
2022-12-25T11:47:35.611Z,9
2022-12-25T11:47:40.313Z,9
2022-12-25T11:48:24.027Z,9
2022-12-25T11:48:45.706Z,9
2022-12-25T11:50:54.889Z,9
2022-12-25T11:52:12.964Z,9
2022-12-25T11:52:43.029Z,9
2022-12-25T11:52:44.327Z,9
2022-12-25T11:56:44.472Z,9.1
2022-12-25T11:59:14.999Z,9.1
2022-12-25T12:23:45.740Z,9.3
2022-12-25T12:24:49.894Z,9.3
2022-12-25T12:25:46.429Z,9.3
2022-12-25T12:26:45.834Z,9.3
2022-12-25T12:27:46.094Z,9.3
2022-12-25T12:28:45.953Z,9.3
2022-12-25T12:29:46.250Z,9.3
2022-12-25T12:30:46.392Z,9.3
2022-12-25T12:31:46.061Z,9.4
2022-12-25T12:32:46.140Z,9.4
2022-12-25T12:33:46.248Z,9.4
2022-12-25T12:34:46.255Z,9.4
2022-12-25T12:35:46.391Z,9.4
2022-12-25T12:36:46.419Z,9.4
2022-12-25T12:37:46.450Z,9.4
2022-12-25T12:38:46.548Z,9.4
2022-12-25T12:39:46.611Z,9.4
2022-12-25T12:40:46.772Z,9.4
2022-12-25T12:41:46.778Z,9.4
2022-12-25T12:42:46.902Z,9.4
2022-12-25T12:43:47.040Z,9.4
2022-12-25T12:44:51.428Z,9.4
2022-12-25T12:45:47.807Z,9.4
2022-12-25T12:46:47.042Z,9.4
2022-12-25T12:47:47.182Z,9.4
2022-12-25T12:48:47.294Z,9.5
2022-12-25T12:49:47.311Z,9.5
2022-12-25T12:50:47.317Z,9.5
2022-12-25T12:51:51.105Z,9.5
2022-12-25T12:52:47.443Z,9.5
2022-12-25T12:54:02.818Z,9.5
2022-12-25T12:59:07.044Z,9.5
2022-12-25T13:03:38.899Z,9.6
2022-12-25T13:04:39.031Z,9.6
2022-12-25T13:05:39.064Z,9.6
2022-12-25T13:06:39.155Z,9.6
2022-12-25T13:07:39.284Z,9.6
2022-12-25T13:08:39.293Z,9.7
2022-12-25T13:09:39.337Z,9.7
2022-12-25T13:10:39.457Z,9.7
2022-12-25T13:11:39.503Z,9.7
2022-12-25T13:12:39.554Z,9.7
2022-12-25T13:13:45.708Z,9.7
2022-12-25T13:14:39.724Z,9.7
2022-12-25T13:15:39.759Z,9.7
2022-12-25T13:16:42.753Z,9.7
2022-12-25T13:17:39.906Z,9.7
2022-12-25T13:18:39.960Z,9.7
2022-12-25T13:19:40.044Z,9.8
2022-12-25T13:20:45.136Z,9.8
2022-12-25T13:21:45.203Z,9.8
2022-12-25T13:22:40.258Z,9.8
2022-12-25T13:23:45.581Z,9.8
2022-12-25T13:24:40.427Z,9.8
2022-12-25T13:25:40.452Z,9.8
2022-12-25T13:26:40.547Z,9.8
2022-12-25T13:27:40.645Z,9.8
2022-12-25T13:28:40.721Z,9.8
2022-12-25T13:29:40.774Z,9.8
2022-12-25T13:30:40.850Z,9.8
2022-12-25T13:31:41.380Z,9.8
2022-12-25T13:32:42.385Z,9.8
2022-12-25T13:33:41.353Z,9.8
2022-12-25T13:34:41.140Z,9.8
2022-12-25T13:35:46.318Z,9.8
2022-12-25T13:36:46.235Z,9.9
2022-12-25T13:37:41.304Z,9.8
2022-12-25T13:38:41.343Z,9.9
2022-12-25T13:39:41.451Z,9.9
2022-12-25T13:40:41.493Z,9.9
2022-12-25T13:41:41.606Z,9.9
2022-12-25T13:42:45.998Z,9.9
2022-12-25T13:43:41.680Z,9.9
2022-12-25T13:44:41.793Z,9.9
2022-12-25T13:45:53.067Z,9.9
2022-12-25T13:46:41.853Z,9.9
2022-12-25T13:47:41.869Z,9.9
2022-12-25T13:48:41.908Z,9.9
2022-12-25T13:49:42.980Z,9.9
2022-12-25T13:50:42.799Z,9.9
2022-12-25T13:51:42.363Z,10
2022-12-25T13:52:42.274Z,10
2022-12-25T13:53:42.444Z,9.9
2022-12-25T13:54:42.307Z,9.9
2022-12-25T13:55:42.645Z,9.9
2022-12-25T14:11:27.015Z,9.9
2022-12-25T14:12:27.011Z,9.8
2022-12-25T14:13:27.070Z,9.8
2022-12-25T14:14:27.157Z,9.8
2022-12-25T14:15:27.244Z,9.8
2022-12-25T14:16:27.407Z,9.8
2022-12-25T14:17:27.531Z,9.9
2022-12-25T14:18:27.448Z,9.9
2022-12-25T14:19:27.534Z,9.8
2022-12-25T14:20:27.585Z,9.8
2022-12-25T14:21:27.666Z,9.8
2022-12-25T14:22:27.717Z,9.9
2022-12-25T14:23:27.850Z,9.9
2022-12-25T14:24:27.890Z,9.9
2022-12-25T14:25:27.968Z,9.9
2022-12-25T14:26:28.113Z,9.9
2022-12-25T14:27:28.173Z,9.9
2022-12-25T14:28:28.193Z,9.9
2022-12-25T14:29:28.668Z,9.9
2022-12-25T14:30:28.392Z,9.9
2022-12-25T14:31:28.449Z,9.9
2022-12-25T14:32:28.516Z,9.9
2022-12-25T14:33:28.586Z,9.9
2022-12-25T14:34:28.667Z,10
2022-12-25T14:35:28.741Z,10
2022-12-25T14:36:28.826Z,10
2022-12-25T14:37:28.888Z,10
2022-12-25T14:38:29.262Z,10
2022-12-25T14:39:29.074Z,10.1
2022-12-25T14:40:29.136Z,10.1
2022-12-25T14:41:47.932Z,10.1
2022-12-25T14:43:02.906Z,10
2022-12-25T14:45:34.926Z,10
2022-12-25T14:45:42.828Z,10
2022-12-25T14:46:47.926Z,10
2022-12-25T14:48:02.891Z,10
2022-12-25T14:49:17.908Z,10
2022-12-25T14:50:32.905Z,10
2022-12-25T14:51:35.929Z,10.1
2022-12-25T14:52:36.019Z,10.1
2022-12-25T14:53:36.152Z,10.1
2022-12-25T14:54:36.176Z,10.1
2022-12-25T14:55:36.249Z,10.1
2022-12-25T14:56:36.358Z,10.1
2022-12-25T14:57:36.518Z,10.1
2022-12-25T14:58:36.505Z,10
2022-12-25T14:59:36.784Z,10
2022-12-25T15:00:36.731Z,10.1
2022-12-25T15:01:36.887Z,10.1
2022-12-25T15:02:37.041Z,10.2
2022-12-25T15:03:36.935Z,10.1
2022-12-25T15:04:36.932Z,10.1
2022-12-25T15:05:37.015Z,10.1
2022-12-25T15:06:37.133Z,10.1
2022-12-25T15:07:37.154Z,10.1
2022-12-25T15:08:37.206Z,10.1
2022-12-25T15:09:37.258Z,10.1
2022-12-25T15:10:59.419Z,10.2
2022-12-25T15:11:37.355Z,10.3